메인 페이지
METAR-TAF:

METAR-TAF

공항 :

반다라나이케 국제공항

콜롬보, 스리랑카

위도: 07-10N, 경도: 079-53E, 고도: 8m

현재 날씨관측

예보는 1 시간 5분 전, 16:10시(UTC)에 발표되었습니다.
서남서5kt남서풍과 서북서풍을 오가는
온도 27°C
습도 84%
기압 1009 hPa
시정 10km 이상
고도 1700ft 상공 구름 조금

METAR: VCBI 251610Z 25005KT 230V300 9999 FEW017 27/24 Q1009 NOSIG

시각: 22:45 (17:15 UTC)

예보

예보는 7 시간 35분 전, 09:40시(UTC)에 발표되었습니다.
예보 대상 시간: 25일 12시부터 26일 18시까지 (UTC)
서남서10kt
시정 10km 이상
고도 1600ft 상공 구름 보통
확률 30% :
일시적
26일 10시부터 26일 12시까지 (UTC)
시정: 6000m
고도 1200ft 상공 구름 보통
고도 1600ft 상공 구름 많음
고도 2000ft 상공 구름 조금, 적란운.
약한소나기

TAF: VCBI 250940Z 2512/2618 24010KT 9999 SCT016 TX30/2607Z TN25/2600Z PROB30 TEMPO 2610/2612 6000 -SHRA SCT012 BKN016 FEW020CB

4,000개 이상의 공항 관측 자료 및 예보 (METAR 및 TAF 보고).

지도상에서 검색 가능한 기상관측소가 노란 점과 빨간 점으로 표시되어 있습니다.

기상관측소 명을 보려면 표시 위로 마우스를 이동하세요.

날씨 관측과 예보를 보려면 클릭하세요.

지도 변경 : 확대하려면 엑스 표시가 있는 녹색 버튼, 축소하려면 빼기 표시가 있는 녹색 버튼, 다음 페이지의 지도를 보려면 녹색 화살표를 클릭하세요.


METAR-TAF: